Liubashivka, Ukraine
Current Conditions -  °F | °C
As of 2:00 AM on Thursday 27 Nov 2014 (Local Time) from LUKK Reporting Station
Light Snow Light Snow  
Wind Chill: 30°   Ceiling: 700
Heat Index: 30°   Visibility: 4mi
Dew Point: 25°   Wind: 3mph
Humidity: 80%   Direction: 350°N
Pressure: 30.3"   Gusts: NA
Location:  47.84°N, 30.26°E
Report Text: LUKK 262300Z 35003KT 320V040 6000 -SN BKN007 OVC019M01/M04 Q1026 R26/CLRD65 NOSIG
Loading
Personal Weather Stations






























Interactive Weather Map New forecast layout! Learn more

10-Day Weather Forecast

Advertisements
Track Severe Weather on mobile